Dutch
Home     News     Corporate     Events & Tours     Flight ops     Crew centre      
My transavia virtual    Join us    Last logs    Who is flying    Forum    Software    Training    VRTS     
 

view flightdata
view flightplan
view OFP
view flightlog



flightdata:
pilot: Theo Dijkman Dulkes
flight: TRA7943
from: EHAM (Amsterdam Schiphol)
to: EFHK (Helsinki Vantaa)
date: 03-10-2013
departure: 05:31z
arrival: 05:39z
duration: 0:07
aircraft: B737 (PHHZO)
distance: 0 NM
touchdown: no landing



flightplan:
-(FPL-TRA7943-IS
-B737/M-SDEHPRWXY/EHLSB1
-EHAM0546
-N4320F330 GRONY UN873 JUIST UP729 TALSA UZ702 ALMANI UP606 PEXEN
-EFHK0025 EHGG
-REG/PHHZO SEL/MQGP PBN/A1B2B3B4B5C1 OPR/TRA COM/TCAS DOF/131003 RVR/200 ORGN/EHAMTRAK)



operational flightplan (OFP):
NO LOADSHEET AVAILABLE

WEATHER BRIEFING  -  TRA7943  EHAM-EFHK  03OCT13  05:31Z

WEATHER DATA PROVIDED BY IVAO
** NOT FOR OPERATIONAL USE **

SCHIPHOL



HELSINKI

EFHK 030226Z 0303/0403 25005KT CAVOK=  EFJY 030228Z 0303/0403 26005KT 9999 BKN007
      TEMPO 0303/0307 2000 BR BKN003
      BECMG 0308/0310 SCT012
      TEMPO 0322/0403 3000 BCFG SCT005



flightlog:
Pilot : Theo Dijkman Dulkes
Flight: TRA7943
From  : EHAM Schiphol
To    : EFHK Helsinki

[FLIGHTLOG] 1.3.8
03-10-2013 05:31:29z, logging started

©2009-2019, transavia virtual. All rights reserved. This website is only meant for simulation purposes.
This website is not owned by transavia, nor is transavia responsible for the content of this website.